Time;durP1;ratioP1;P1;durP2;ratioP2;P2;SDS_P1;SDS_P2;PMS_P1;PMS_P2;Temp;Humidity;BMP_temperature;BMP_pressure;BME280_temperature;BME280_humidity;BME280_pressure;Samples;Min_cycle;Max_cycle;Signal;HPM_P1;HPM_P2
2023/05/20 00:02:17;;;;;;;6.43;3.40;;;13.40;98.00;;;;;;5031640;28;20478;-65
2023/05/20 00:04:44;;;;;;;5.70;3.20;;;13.40;98.00;;;;;;5032689;28;20928;-67
2023/05/20 00:07:11;;;;;;;5.23;3.10;;;13.30;98.00;;;;;;5032636;28;20458;-66
2023/05/20 00:09:40;;;;;;;4.90;3.23;;;13.20;98.00;;;;;;5032565;28;20815;-66
2023/05/20 00:12:07;;;;;;;4.30;3.10;;;13.00;98.00;;;;;;5032687;28;20458;-66
2023/05/20 00:14:35;;;;;;;6.93;3.37;;;13.00;98.00;;;;;;5032150;28;20466;-66
2023/05/20 00:17:02;;;;;;;4.80;3.20;;;13.00;98.00;;;;;;5031239;28;20466;-66
2023/05/20 00:19:29;;;;;;;4.73;3.00;;;13.10;98.00;;;;;;5032210;28;20458;-65
2023/05/20 00:21:57;;;;;;;3.73;2.63;;;13.30;98.00;;;;;;5032169;28;20497;-66
2023/05/20 00:24:25;;;;;;;5.97;3.30;;;13.30;98.00;;;;;;5032007;28;20521;-66
2023/05/20 00:26:54;;;;;;;6.00;3.23;;;13.30;98.00;;;;;;5032365;28;20466;-65
2023/05/20 00:29:22;;;;;;;6.50;3.37;;;13.20;98.00;;;;;;5031988;28;20876;-66
2023/05/20 00:31:49;;;;;;;4.63;3.03;;;13.10;98.00;;;;;;5032132;28;20463;-65
2023/05/20 00:34:16;;;;;;;6.90;3.60;;;13.10;98.00;;;;;;5031942;28;20453;-66
2023/05/20 00:36:43;;;;;;;6.50;3.63;;;13.20;98.00;;;;;;5031965;28;20959;-66
2023/05/20 00:39:10;;;;;;;4.73;3.33;;;13.20;98.00;;;;;;5032065;28;20500;-66
2023/05/20 00:41:38;;;;;;;4.67;3.40;;;13.10;98.00;;;;;;5031948;28;20992;-66
2023/05/20 00:44:06;;;;;;;5.70;3.33;;;12.90;98.00;;;;;;5031974;28;20497;-65
2023/05/20 00:46:34;;;;;;;7.60;3.67;;;12.80;98.00;;;;;;5032036;28;20469;-66
2023/05/20 00:49:01;;;;;;;7.67;4.33;;;12.80;98.00;;;;;;5031873;28;20469;-66
2023/05/20 00:51:30;;;;;;;8.30;3.90;;;12.80;98.00;;;;;;5031959;28;20458;-66
2023/05/20 00:53:58;;;;;;;7.03;3.67;;;12.60;98.00;;;;;;5030761;28;20465;-65
2023/05/20 00:56:25;;;;;;;6.53;3.70;;;12.50;98.00;;;;;;5032016;28;20455;-67
2023/05/20 00:58:52;;;;;;;8.60;3.93;;;12.50;98.00;;;;;;5030454;28;20473;-66
2023/05/20 01:01:21;;;;;;;6.87;3.53;;;12.50;98.00;;;;;;5031948;28;20561;-66
2023/05/20 01:03:48;;;;;;;6.30;3.70;;;12.60;98.00;;;;;;5031967;28;20492;-66
2023/05/20 01:06:15;;;;;;;6.97;3.60;;;12.50;98.00;;;;;;5032045;28;20589;-66
2023/05/20 01:08:42;;;;;;;6.87;3.80;;;12.60;98.00;;;;;;5030760;28;20467;-65
2023/05/20 01:11:20;;;;;;;10.80;4.83;;;12.60;98.00;;;;;;5031775;28;20472;-66
2023/05/20 01:13:51;;;;;;;5.57;3.30;;;12.70;98.00;;;;;;5031617;28;20458;-66
2023/05/20 01:16:20;;;;;;;5.40;3.20;;;12.70;98.00;;;;;;5031749;28;20461;-65
2023/05/20 01:18:49;;;;;;;6.90;3.43;;;12.60;98.00;;;;;;5031590;28;20469;-66
2023/05/20 01:21:18;;;;;;;4.67;3.33;;;12.60;98.00;;;;;;5031158;28;20478;-66
2023/05/20 01:23:47;;;;;;;9.20;3.50;;;12.70;98.00;;;;;;5034319;28;20478;-66
2023/05/20 01:26:14;;;;;;;6.27;3.80;;;12.70;98.00;;;;;;5035391;28;20497;-65
2023/05/20 01:28:43;;;;;;;5.80;3.47;;;12.70;98.00;;;;;;5035446;28;20462;-66
2023/05/20 01:31:18;;;;;;;6.30;3.50;;;12.50;98.00;;;;;;5035289;28;20540;-67
2023/05/20 01:33:49;;;;;;;7.43;3.07;;;12.40;98.00;;;;;;5035437;28;20543;-65
2023/05/20 01:36:18;;;;;;;8.33;4.27;;;12.30;98.00;;;;;;5033810;28;20469;-66
2023/05/20 01:38:49;;;;;;;8.83;3.77;;;12.20;98.00;;;;;;5035281;28;20471;-65
2023/05/20 01:41:17;;;;;;;10.93;3.70;;;12.20;98.00;;;;;;5035226;28;20463;-66
2023/05/20 01:43:45;;;;;;;7.63;4.03;;;12.20;98.00;;;;;;5035270;28;20492;-65
2023/05/20 01:46:12;;;;;;;6.00;3.70;;;12.10;98.00;;;;;;5035108;28;20464;-65
2023/05/20 01:48:39;;;;;;;8.60;4.00;;;12.00;98.00;;;;;;5035064;28;20464;-65
2023/05/20 01:51:07;;;;;;;6.47;3.80;;;12.00;98.00;;;;;;5035050;28;20460;-65
2023/05/20 01:53:34;;;;;;;10.63;3.90;;;11.90;98.00;;;;;;5035178;28;20464;-67
2023/05/20 01:56:20;;;;;;;5.33;3.10;;;11.90;98.00;;;;;;5033828;28;20456;-66
2023/05/20 01:58:48;;;;;;;5.83;3.50;;;11.90;98.00;;;;;;5033746;28;20463;-66
2023/05/20 02:01:16;;;;;;;6.07;3.37;;;12.00;98.00;;;;;;5034963;28;20460;-66
2023/05/20 02:03:43;;;;;;;8.80;3.23;;;12.10;98.00;;;;;;5034762;28;20491;-66
2023/05/20 02:06:10;;;;;;;5.93;3.00;;;12.20;98.00;;;;;;5033666;28;20468;-66
2023/05/20 02:08:38;;;;;;;6.07;3.30;;;12.20;98.00;;;;;;5034631;28;21001;-65
2023/05/20 02:11:05;;;;;;;5.10;3.60;;;12.30;98.00;;;;;;5034574;28;20458;-66
2023/05/20 02:13:33;;;;;;;5.70;3.53;;;12.30;98.00;;;;;;5034395;28;21035;-65
2023/05/20 02:16:00;;;;;;;7.00;3.57;;;12.50;98.00;;;;;;5034406;28;20887;-65
2023/05/20 02:18:28;;;;;;;5.40;3.30;;;12.70;98.00;;;;;;5034445;28;20453;-65
2023/05/20 02:20:55;;;;;;;7.17;4.07;;;12.70;98.00;;;;;;5034028;28;20458;-66
2023/05/20 02:23:22;;;;;;;4.47;3.23;;;12.60;98.00;;;;;;5034103;28;20486;-65
2023/05/20 02:25:49;;;;;;;6.03;3.30;;;12.50;98.00;;;;;;5034355;28;20521;-65
2023/05/20 02:28:16;;;;;;;7.63;3.60;;;12.50;98.00;;;;;;5034345;28;20461;-65
2023/05/20 02:30:45;;;;;;;4.90;3.27;;;12.50;98.00;;;;;;5034209;28;20452;-66
2023/05/20 02:33:12;;;;;;;4.43;2.97;;;12.40;98.00;;;;;;5034011;28;20794;-66
2023/05/20 02:35:39;;;;;;;5.20;3.30;;;12.20;98.00;;;;;;5033269;28;20471;-65
2023/05/20 02:38:06;;;;;;;6.47;3.60;;;12.20;98.00;;;;;;5033040;28;20510;-65
2023/05/20 02:40:34;;;;;;;6.90;3.50;;;12.20;98.00;;;;;;5033513;28;20978;-66
2023/05/20 02:43:01;;;;;;;5.40;3.30;;;12.10;98.00;;;;;;5033206;28;20821;-66
2023/05/20 02:45:28;;;;;;;7.27;3.37;;;12.00;98.00;;;;;;5033270;28;20636;-66
2023/05/20 02:47:56;;;;;;;6.17;3.90;;;12.00;98.00;;;;;;5032103;28;20469;-66
2023/05/20 02:50:24;;;;;;;6.60;3.47;;;12.10;98.00;;;;;;5033836;28;20530;-65
2023/05/20 02:52:51;;;;;;;4.23;3.10;;;12.10;98.00;;;;;;5034086;28;20461;-66
2023/05/20 02:55:20;;;;;;;4.23;2.90;;;11.90;98.00;;;;;;5032604;28;20481;-67
2023/05/20 02:57:47;;;;;;;5.97;3.30;;;11.90;98.00;;;;;;5034067;28;20547;-66
2023/05/20 03:00:15;;;;;;;6.93;3.50;;;11.80;98.00;;;;;;5033697;28;20573;-65
2023/05/20 03:02:42;;;;;;;5.00;3.23;;;11.80;98.00;;;;;;5033639;28;20489;-66
2023/05/20 03:05:11;;;;;;;5.17;3.27;;;11.70;98.00;;;;;;5033514;28;20460;-66
2023/05/20 03:07:38;;;;;;;6.00;3.10;;;11.80;98.00;;;;;;5033420;28;20451;-65
2023/05/20 03:10:07;;;;;;;5.50;2.80;;;11.70;98.00;;;;;;5032147;28;20467;-65
2023/05/20 03:12:34;;;;;;;5.13;3.17;;;11.90;98.00;;;;;;5033447;28;20461;-67
2023/05/20 03:15:02;;;;;;;6.60;3.27;;;11.90;98.00;;;;;;5033325;28;20468;-65
2023/05/20 03:17:29;;;;;;;6.07;3.17;;;12.00;98.00;;;;;;5033319;28;20552;-66
2023/05/20 03:19:56;;;;;;;6.40;3.20;;;12.10;98.00;;;;;;5033191;28;20458;-66
2023/05/20 03:22:25;;;;;;;7.03;3.47;;;12.10;98.00;;;;;;5033129;28;20468;-66
2023/05/20 03:24:52;;;;;;;8.40;3.10;;;12.10;98.00;;;;;;5033288;28;20465;-66
2023/05/20 03:27:20;;;;;;;6.23;3.63;;;12.30;98.00;;;;;;5032115;28;20547;-66
2023/05/20 03:29:48;;;;;;;4.70;2.90;;;12.30;98.00;;;;;;5032048;28;20460;-66
2023/05/20 03:32:15;;;;;;;4.70;3.00;;;12.20;98.00;;;;;;5031927;28;20452;-66
2023/05/20 03:34:42;;;;;;;6.50;3.50;;;12.10;98.00;;;;;;5033174;28;20970;-66
2023/05/20 03:37:09;;;;;;;7.20;3.30;;;11.80;98.00;;;;;;5033023;28;21153;-65
2023/05/20 03:39:38;;;;;;;6.40;3.50;;;11.80;98.00;;;;;;5033176;28;20938;-66
2023/05/20 03:42:06;;;;;;;4.80;3.13;;;11.70;98.00;;;;;;5031756;28;20902;-66
2023/05/20 03:44:33;;;;;;;11.83;3.53;;;11.70;98.00;;;;;;5032943;28;20494;-65
2023/05/20 03:47:00;;;;;;;5.70;3.40;;;11.70;98.00;;;;;;5032650;28;20460;-66
2023/05/20 03:49:28;;;;;;;5.83;3.33;;;11.60;98.00;;;;;;5031727;28;20455;-66
2023/05/20 03:51:55;;;;;;;8.10;3.63;;;11.50;98.00;;;;;;5032987;28;20955;-66
2023/05/20 03:54:22;;;;;;;5.00;2.90;;;11.40;98.00;;;;;;5032935;28;20452;-66
2023/05/20 03:56:50;;;;;;;4.50;3.17;;;11.40;98.00;;;;;;5032781;28;20455;-65
2023/05/20 03:59:18;;;;;;;5.73;3.27;;;11.50;98.00;;;;;;5032415;28;20977;-65
2023/05/20 04:01:45;;;;;;;7.30;3.57;;;11.70;98.00;;;;;;5031350;28;21031;-67
2023/05/20 04:04:12;;;;;;;6.30;3.37;;;11.80;98.00;;;;;;5030950;28;20493;-65
2023/05/20 04:06:40;;;;;;;6.23;3.13;;;11.80;98.00;;;;;;5032458;28;20951;-66
2023/05/20 04:09:07;;;;;;;8.23;3.53;;;11.80;98.00;;;;;;5032313;28;20556;-66
2023/05/20 04:11:34;;;;;;;8.80;4.00;;;11.80;98.00;;;;;;5031982;28;20510;-65
2023/05/20 04:14:03;;;;;;;5.83;3.60;;;11.80;98.00;;;;;;5032108;28;20463;-65
2023/05/20 04:16:30;;;;;;;6.47;3.10;;;11.70;98.00;;;;;;5032371;28;20466;-66
2023/05/20 04:18:59;;;;;;;5.90;3.50;;;11.70;98.00;;;;;;5032289;28;20454;-66
2023/05/20 04:21:26;;;;;;;6.07;3.10;;;11.80;98.00;;;;;;5014936;28;20519;-65
2023/05/20 04:23:54;;;;;;;7.83;4.17;;;11.90;98.00;;;;;;5030980;28;20492;-65
2023/05/20 04:26:21;;;;;;;7.10;3.30;;;11.90;98.00;;;;;;5030928;28;20459;-65
2023/05/20 04:28:48;;;;;;;6.50;3.80;;;12.00;98.00;;;;;;5032196;28;20543;-66
2023/05/20 04:31:20;;;;;;;5.00;3.40;;;12.20;98.00;;;;;;5032103;28;20783;-66
2023/05/20 04:33:47;;;;;;;7.33;3.57;;;12.20;98.00;;;;;;5031710;28;20938;-66
2023/05/20 04:36:16;;;;;;;6.17;3.73;;;12.10;98.00;;;;;;5032242;28;20527;-66
2023/05/20 04:38:43;;;;;;;6.13;3.57;;;12.10;98.00;;;;;;5032207;28;20459;-66
2023/05/20 04:41:11;;;;;;;7.03;3.90;;;12.10;98.00;;;;;;5030957;28;20456;-66
2023/05/20 04:43:38;;;;;;;7.00;3.83;;;12.10;98.00;;;;;;5032088;28;20497;-65
2023/05/20 04:46:06;;;;;;;7.87;3.20;;;12.00;98.00;;;;;;5030878;28;20518;-65
2023/05/20 04:48:35;;;;;;;4.80;3.13;;;12.10;98.00;;;;;;5032281;28;20466;-65
2023/05/20 04:51:02;;;;;;;5.63;3.30;;;12.20;98.00;;;;;;5032014;28;20473;-66
2023/05/20 04:53:30;;;;;;;5.30;3.40;;;12.20;98.00;;;;;;5031838;28;20492;-65
2023/05/20 04:55:58;;;;;;;4.87;3.10;;;12.30;98.00;;;;;;5031661;28;20544;-65
2023/05/20 04:58:28;;;;;;;7.13;3.43;;;12.30;98.00;;;;;;5034184;28;20952;-65
2023/05/20 05:00:56;;;;;;;7.13;3.63;;;12.40;98.00;;;;;;5035651;28;20970;-66
2023/05/20 05:03:23;;;;;;;5.10;3.10;;;12.60;98.00;;;;;;5035765;28;20521;-65
2023/05/20 05:05:55;;;;;;;8.30;3.80;;;12.80;98.00;;;;;;5035770;28;20465;-67
2023/05/20 05:08:23;;;;;;;7.40;3.83;;;13.00;98.00;;;;;;5035844;28;20459;-66
2023/05/20 05:10:50;;;;;;;7.40;3.80;;;13.20;98.00;;;;;;5035276;28;20465;-66
2023/05/20 05:13:17;;;;;;;6.67;3.70;;;13.50;98.00;;;;;;5034938;28;20458;-65
2023/05/20 05:15:45;;;;;;;6.60;3.67;;;13.60;98.00;;;;;;5035464;28;20544;-65
2023/05/20 05:18:17;;;;;;;12.20;4.10;;;13.70;98.00;;;;;;5034573;28;20465;-66
2023/05/20 05:20:44;;;;;;;6.57;3.90;;;13.70;98.00;;;;;;5035589;28;20458;-66
2023/05/20 05:23:14;;;;;;;9.50;4.63;;;13.70;98.00;;;;;;5035359;28;20481;-66
2023/05/20 05:25:41;;;;;;;10.20;4.20;;;13.70;98.00;;;;;;5035621;28;20480;-65
2023/05/20 05:28:08;;;;;;;7.83;4.23;;;13.80;98.00;;;;;;5035607;28;20465;-66
2023/05/20 05:30:36;;;;;;;6.53;3.80;;;13.80;98.00;;;;;;5035540;28;20466;-65
2023/05/20 05:33:03;;;;;;;9.20;4.40;;;13.80;98.00;;;;;;5035517;28;20458;-66
2023/05/20 05:35:30;;;;;;;8.90;4.10;;;13.90;98.00;;;;;;5034285;28;20462;-65
2023/05/20 05:37:58;;;;;;;10.10;4.67;;;13.90;98.00;;;;;;5035454;28;20453;-66
2023/05/20 05:40:27;;;;;;;7.43;4.27;;;13.90;98.00;;;;;;5035663;28;20538;-66
2023/05/20 05:42:54;;;;;;;7.23;4.50;;;13.90;98.00;;;;;;5035396;28;20510;-66
2023/05/20 05:45:21;;;;;;;11.20;4.60;;;13.90;98.00;;;;;;5035191;28;20464;-66
2023/05/20 05:47:48;;;;;;;6.30;4.03;;;14.00;98.00;;;;;;5034915;28;20454;-65
2023/05/20 05:50:16;;;;;;;10.63;4.93;;;14.00;98.00;;;;;;5035141;28;20519;-66
2023/05/20 05:52:46;;;;;;;9.23;5.20;;;14.10;98.00;;;;;;5034927;28;20460;-66
2023/05/20 05:55:13;;;;;;;8.87;4.83;;;14.10;98.00;;;;;;5034865;28;20453;-66
2023/05/20 05:57:41;;;;;;;7.33;4.00;;;14.20;98.00;;;;;;5034920;28;20453;-66
2023/05/20 06:00:10;;;;;;;6.53;3.70;;;14.40;98.00;;;;;;5034801;28;20465;-62
2023/05/20 06:02:37;;;;;;;8.17;4.50;;;14.40;98.00;;;;;;5034841;28;20462;-62
2023/05/20 06:05:04;;;;;;;7.80;4.23;;;14.50;98.00;;;;;;5033326;28;20845;-63
2023/05/20 06:07:32;;;;;;;7.23;3.80;;;14.50;98.00;;;;;;5034509;28;20454;-61
2023/05/20 06:09:59;;;;;;;9.60;4.30;;;14.60;98.00;;;;;;5032949;28;20465;-63
2023/05/20 06:12:26;;;;;;;7.33;3.90;;;14.70;98.00;;;;;;5034483;28;20451;-61
2023/05/20 06:14:54;;;;;;;5.37;3.40;;;14.80;98.00;;;;;;5034356;28;20478;-62
2023/05/20 06:17:21;;;;;;;8.20;4.47;;;14.80;98.00;;;;;;5034613;28;20816;-61
2023/05/20 06:19:48;;;;;;;8.43;4.13;;;15.00;98.00;;;;;;5034366;28;20939;-62
2023/05/20 06:22:18;;;;;;;8.07;3.70;;;15.10;98.00;;;;;;5037922;28;20449;-61
2023/05/20 06:24:45;;;;;;;5.90;3.47;;;15.10;98.00;;;;;;5052272;28;20485;-61
2023/05/20 06:27:12;;;;;;;7.63;4.00;;;15.10;98.00;;;;;;5053715;28;20465;-62
2023/05/20 06:29:39;;;;;;;6.67;3.70;;;15.30;98.00;;;;;;5053688;28;20457;-62
2023/05/20 06:32:08;;;;;;;7.67;4.10;;;15.40;98.00;;;;;;5053332;28;20461;-61
2023/05/20 06:34:35;;;;;;;5.10;3.40;;;15.40;98.00;;;;;;5053635;28;20464;-62
2023/05/20 06:37:02;;;;;;;7.20;3.90;;;15.50;98.00;;;;;;5053049;28;20461;-62
2023/05/20 06:39:29;;;;;;;6.53;3.97;;;15.50;98.00;;;;;;5052481;28;20450;-61
2023/05/20 06:41:57;;;;;;;8.00;3.97;;;15.50;98.00;;;;;;5053132;28;20828;-62
2023/05/20 06:44:25;;;;;;;10.80;3.77;;;15.60;98.00;;;;;;5053185;28;21026;-61
2023/05/20 06:46:52;;;;;;;7.90;4.00;;;15.70;98.00;;;;;;5053210;28;20458;-63
2023/05/20 06:49:20;;;;;;;9.57;5.07;;;15.70;98.00;;;;;;5052028;28;20527;-61
2023/05/20 06:51:48;;;;;;;7.67;4.43;;;15.80;98.00;;;;;;5053047;28;20515;-62
2023/05/20 06:54:17;;;;;;;10.73;4.23;;;16.00;98.00;;;;;;5052998;28;20463;-62
2023/05/20 06:56:44;;;;;;;6.10;3.57;;;16.20;98.00;;;;;;5053058;28;20457;-62
2023/05/20 06:59:11;;;;;;;9.93;4.40;;;16.40;98.00;;;;;;5052789;28;21080;-61
2023/05/20 07:01:40;;;;;;;8.50;4.10;;;16.60;98.00;;;;;;5052869;28;20449;-61
2023/05/20 07:04:07;;;;;;;7.50;3.80;;;16.70;98.00;;;;;;5051081;28;20477;-61
2023/05/20 07:06:37;;;;;;;10.00;4.53;;;16.70;98.00;;;;;;5052872;28;20825;-63
2023/05/20 07:09:04;;;;;;;8.90;4.40;;;16.90;98.00;;;;;;5052726;28;20888;-61
2023/05/20 07:11:31;;;;;;;7.80;4.17;;;16.90;98.00;;;;;;5052632;28;20828;-61
2023/05/20 07:13:58;;;;;;;8.43;4.13;;;17.00;98.00;;;;;;5052421;28;20462;-62
2023/05/20 07:16:25;;;;;;;8.40;4.03;;;17.00;98.00;;;;;;5052552;28;20457;-61
2023/05/20 07:18:54;;;;;;;10.63;4.10;;;17.20;98.00;;;;;;5052587;28;20454;-61
2023/05/20 07:21:21;;;;;;;9.90;4.10;;;17.30;98.00;;;;;;5051692;28;20629;-62
2023/05/20 07:23:50;;;;;;;8.40;4.37;;;17.40;98.00;;;;;;5052442;28;20505;-62
2023/05/20 07:26:17;;;;;;;5.80;3.63;;;17.50;98.00;;;;;;5052643;28;20458;-61
2023/05/20 07:28:50;;;;;;;9.00;4.27;;;17.70;98.00;;;;;;5051449;28;20454;-61
2023/05/20 07:31:17;;;;;;;10.40;4.40;;;17.60;98.00;;;;;;5051958;28;20454;-61
2023/05/20 07:33:44;;;;;;;8.10;4.30;;;17.60;98.00;;;;;;5052617;28;20457;-62
2023/05/20 07:36:11;;;;;;;13.37;4.60;;;17.50;98.00;;;;;;5052008;28;21078;-62
2023/05/20 07:38:38;;;;;;;10.40;5.30;;;17.40;98.00;;;;;;5051817;28;20462;-61
2023/05/20 07:41:08;;;;;;;9.30;4.37;;;17.60;98.00;;;;;;5052141;28;20450;-62
2023/05/20 07:43:35;;;;;;;7.57;4.27;;;17.50;98.00;;;;;;5052083;28;20458;-62
2023/05/20 07:46:02;;;;;;;8.43;4.53;;;17.70;98.00;;;;;;5050961;28;20461;-63
2023/05/20 07:48:29;;;;;;;5.97;3.70;;;17.80;98.00;;;;;;5051873;28;20464;-62
2023/05/20 07:50:58;;;;;;;8.10;4.07;;;17.90;98.00;;;;;;5051715;28;20461;-63
2023/05/20 07:53:26;;;;;;;7.17;4.10;;;18.00;98.00;;;;;;5051232;28;20493;-63
2023/05/20 07:55:53;;;;;;;7.33;4.33;;;18.20;98.00;;;;;;5052291;28;20461;-62
2023/05/20 07:58:22;;;;;;;5.63;3.07;;;18.40;98.00;;;;;;5052513;28;20457;-65
2023/05/20 08:00:50;;;;;;;6.73;3.53;;;18.60;98.00;;;;;;5052193;28;20466;-65
2023/05/20 08:03:21;;;;;;;6.07;3.73;;;18.80;98.00;;;;;;5052521;28;21143;-65
2023/05/20 08:05:48;;;;;;;7.20;4.13;;;18.90;98.00;;;;;;5052406;28;20486;-62
2023/05/20 08:08:16;;;;;;;7.80;4.33;;;18.90;98.00;;;;;;5052287;28;20511;-63
2023/05/20 08:10:43;;;;;;;15.50;4.73;;;18.90;98.00;;;;;;5051271;28;20462;-62
2023/05/20 08:13:12;;;;;;;7.67;3.97;;;18.80;98.00;;;;;;5052379;28;20468;-62
2023/05/20 08:15:41;;;;;;;9.40;4.50;;;18.70;98.00;;;;;;5052385;28;20470;-63
2023/05/20 08:18:08;;;;;;;6.57;3.83;;;18.60;98.00;;;;;;5034687;28;20457;-63
2023/05/20 08:20:35;;;;;;;7.47;4.30;;;18.60;98.00;;;;;;5051512;28;20958;-62
2023/05/20 08:23:02;;;;;;;6.17;3.90;;;18.70;98.00;;;;;;5051395;28;20956;-62
2023/05/20 08:25:30;;;;;;;7.90;4.30;;;18.80;98.00;;;;;;5051447;28;20481;-63
2023/05/20 08:27:57;;;;;;;7.10;4.23;;;19.00;98.00;;;;;;5051614;28;20948;-62
2023/05/20 08:30:24;;;;;;;7.40;4.13;;;19.20;98.00;;;;;;5051562;28;20466;-62
2023/05/20 08:32:53;;;;;;;7.70;4.43;;;19.40;98.00;;;;;;5050338;28;20807;-62
2023/05/20 08:35:20;;;;;;;8.20;4.50;;;19.60;98.00;;;;;;5051131;28;20487;-63
2023/05/20 08:37:47;;;;;;;7.70;4.20;;;19.70;98.00;;;;;;5051555;28;20943;-62
2023/05/20 08:40:15;;;;;;;8.27;3.93;;;19.80;98.00;;;;;;5051440;28;20458;-62
2023/05/20 08:42:43;;;;;;;10.70;4.70;;;19.90;98.00;;;;;;5051273;28;20470;-63
2023/05/20 08:45:15;;;;;;;7.30;4.37;;;19.90;98.00;;;;;;5051209;28;20597;-63
2023/05/20 08:47:42;;;;;;;7.90;4.53;;;20.00;98.00;;;;;;5051443;28;20458;-63
2023/05/20 08:50:12;;;;;;;9.20;4.37;;;20.10;98.00;;;;;;5051366;28;20958;-63
2023/05/20 08:52:44;;;;;;;7.83;3.90;;;20.20;98.00;;;;;;5051468;28;20461;-63
2023/05/20 08:55:21;;;;;;;5.40;3.47;;;20.30;98.00;;;;;;5033834;28;20462;-63
2023/05/20 08:57:49;;;;;;;9.27;4.50;;;20.50;98.00;;;;;;5051341;28;20456;-62
2023/05/20 09:00:18;;;;;;;7.03;4.13;;;20.70;98.00;;;;;;5051259;28;20462;-62
2023/05/20 09:02:46;;;;;;;7.17;4.10;;;20.80;98.00;;;;;;5051361;28;20947;-62
2023/05/20 09:05:14;;;;;;;8.90;4.60;;;20.80;98.00;;;;;;5051171;28;20822;-62
2023/05/20 09:07:43;;;;;;;8.80;4.40;;;20.80;98.00;;;;;;5051232;28;20465;-62
2023/05/20 09:10:11;;;;;;;6.47;4.03;;;20.80;98.00;;;;;;5049913;28;20481;-63
2023/05/20 09:12:38;;;;;;;7.70;4.17;;;20.70;98.00;;;;;;5051216;28;20818;-63
2023/05/20 09:15:06;;;;;;;8.20;4.90;;;20.70;98.00;;;;;;5050996;28;20839;-63
2023/05/20 09:17:35;;;;;;;7.60;4.20;;;20.90;98.00;;;;;;5051262;28;20457;-63
2023/05/20 09:20:07;;;;;;;5.40;3.93;;;21.10;98.00;;;;;;5051137;28;20473;-63
2023/05/20 09:22:36;;;;;;;10.10;5.20;;;21.30;98.00;;;;;;5051374;28;20897;-63
2023/05/20 09:25:03;;;;;;;7.60;4.40;;;21.50;98.00;;;;;;5051257;28;20517;-63
2023/05/20 09:27:30;;;;;;;12.60;4.40;;;21.50;98.00;;;;;;5051198;28;21034;-64
2023/05/20 09:29:57;;;;;;;7.20;4.17;;;21.50;98.00;;;;;;5051097;28;20457;-62
2023/05/20 09:32:27;;;;;;;6.50;4.10;;;21.50;98.00;;;;;;5051020;28;20457;-63
2023/05/20 09:34:54;;;;;;;11.80;4.17;;;21.60;98.00;;;;;;5051025;28;20458;-63
2023/05/20 09:37:26;;;;;;;7.57;3.60;;;21.80;98.00;;;;;;5050856;28;20515;-63
2023/05/20 09:39:58;;;;;;;7.00;3.90;;;22.00;98.00;;;;;;5050922;28;20913;-63
2023/05/20 09:42:30;;;;;;;8.47;4.40;;;22.20;98.00;;;;;;5051092;28;20485;-63
2023/05/20 09:44:58;;;;;;;6.63;4.10;;;22.30;98.00;;;;;;5054010;28;20481;-64
2023/05/20 09:47:26;;;;;;;7.90;4.23;;;22.50;98.00;;;;;;5054597;28;20465;-64
2023/05/20 09:49:53;;;;;;;7.40;4.40;;;22.60;98.00;;;;;;5054395;28;20445;-63
2023/05/20 09:52:21;;;;;;;10.23;5.20;;;22.80;98.00;;;;;;5054008;28;20453;-63
2023/05/20 09:54:49;;;;;;;8.40;4.40;;;23.00;98.00;;;;;;5054312;28;20481;-63
2023/05/20 09:57:18;;;;;;;7.13;4.50;;;23.10;98.00;;;;;;5053990;28;20457;-64
2023/05/20 09:59:46;;;;;;;10.27;4.50;;;23.20;98.00;;;;;;5054400;28;20856;-63
2023/05/20 10:02:14;;;;;;;9.90;4.43;;;23.40;98.00;;;;;;5054752;28;20814;-63
2023/05/20 10:04:45;;;;;;;7.63;4.40;;;23.30;98.00;;;;;;5054985;28;20786;-64
2023/05/20 10:07:38;;;;;;;7.53;4.27;;;23.20;98.00;;;;;;5054591;28;20456;-64
2023/05/20 10:10:17;;;;;;;9.30;4.80;;;23.20;98.00;;;;;;5054541;28;20461;-63
2023/05/20 10:13:00;;;;;;;9.00;4.30;;;22.80;98.00;;;;;;5038006;28;20450;-64
2023/05/20 10:15:34;;;;;;;7.23;4.47;;;22.50;98.00;;;;;;5054689;28;20465;-64
2023/05/20 10:18:22;;;;;;;8.47;4.40;;;22.30;98.00;;;;;;5054514;28;20479;-63
2023/05/20 10:20:50;;;;;;;7.27;4.40;;;22.30;98.00;;;;;;5054300;28;20458;-63
2023/05/20 10:23:24;;;;;;;7.27;4.13;;;22.40;98.00;;;;;;5054129;28;20670;-64
2023/05/20 10:25:52;;;;;;;6.23;4.17;;;22.40;98.00;;;;;;5052946;28;20488;-63
2023/05/20 10:28:30;;;;;;;7.40;4.40;;;22.30;98.00;;;;;;5053806;28;21023;-63
2023/05/20 10:30:57;;;;;;;5.93;3.77;;;22.00;98.00;;;;;;5054165;28;20537;-63
2023/05/20 10:33:26;;;;;;;8.00;4.40;;;22.10;98.00;;;;;;5053647;28;20454;-63
2023/05/20 10:35:54;;;;;;;8.10;4.27;;;22.30;98.00;;;;;;5054135;28;20983;-63
2023/05/20 10:38:21;;;;;;;5.97;3.50;;;22.50;98.00;;;;;;5052696;28;20822;-64
2023/05/20 10:40:49;;;;;;;6.07;3.90;;;22.80;98.00;;;;;;5053981;28;20499;-64
2023/05/20 10:43:17;;;;;;;6.37;3.90;;;22.70;97.90;;;;;;5053942;28;20442;-63
2023/05/20 10:45:52;;;;;;;8.50;4.60;;;22.80;98.00;;;;;;5053643;28;20493;-63
2023/05/20 10:48:27;;;;;;;6.77;4.23;;;22.70;98.00;;;;;;5053793;28;20462;-63
2023/05/20 10:50:56;;;;;;;7.60;4.10;;;22.70;98.00;;;;;;5053608;28;20515;-63
2023/05/20 10:53:25;;;;;;;7.07;4.27;;;22.70;98.00;;;;;;5053684;28;20504;-63
2023/05/20 10:55:54;;;;;;;5.47;3.47;;;22.70;98.00;;;;;;5052680;28;20508;-63
2023/05/20 10:58:23;;;;;;;7.47;4.00;;;22.80;98.00;;;;;;5053707;28;21001;-63
2023/05/20 11:00:55;;;;;;;6.40;3.53;;;23.00;98.00;;;;;;5053573;28;20486;-63
2023/05/20 11:03:24;;;;;;;7.07;4.20;;;23.20;97.10;;;;;;5053714;28;20454;-64
2023/05/20 11:05:51;;;;;;;8.00;4.33;;;23.60;96.60;;;;;;5053582;28;20486;-63
2023/05/20 11:08:20;;;;;;;6.70;3.80;;;23.90;97.30;;;;;;5053716;28;20458;-65
2023/05/20 11:10:47;;;;;;;11.03;4.90;;;24.10;97.80;;;;;;5053817;28;20458;-63
2023/05/20 11:13:16;;;;;;;7.97;4.53;;;24.10;94.80;;;;;;5053459;28;20457;-64
2023/05/20 11:15:43;;;;;;;7.40;4.03;;;23.90;95.10;;;;;;5053339;28;20481;-63
2023/05/20 11:18:14;;;;;;;7.20;4.20;;;23.70;96.10;;;;;;5052798;28;20948;-63
2023/05/20 11:20:41;;;;;;;8.70;4.50;;;24.00;98.00;;;;;;5053342;28;20457;-63
2023/05/20 11:25:44;;;;;;;7.30;4.30;;;24.30;94.60;;;;;;5398220;22;20490;-64
2023/05/20 11:28:13;;;;;;;6.97;3.67;;;24.50;95.50;;;;;;5032265;28;20825;-64
2023/05/20 11:30:42;;;;;;;7.00;3.90;;;24.60;94.20;;;;;;5032466;28;20549;-63
2023/05/20 11:33:14;;;;;;;6.47;3.67;;;24.90;94.40;;;;;;5032447;28;20459;-64
2023/05/20 11:35:45;;;;;;;6.37;3.70;;;25.20;91.50;;;;;;5031201;28;20550;-64
2023/05/20 11:38:13;;;;;;;6.27;3.83;;;25.40;94.20;;;;;;5032115;28;20463;-64
2023/05/20 11:40:44;;;;;;;7.00;3.93;;;25.30;91.80;;;;;;5031989;28;20450;-63
2023/05/20 11:43:12;;;;;;;6.30;3.70;;;25.10;92.30;;;;;;5031958;28;20577;-64
2023/05/20 11:45:40;;;;;;;6.03;4.20;;;25.10;92.80;;;;;;5032137;28;21008;-63
2023/05/20 11:48:08;;;;;;;6.80;3.90;;;25.20;93.90;;;;;;5032065;28;20490;-64
2023/05/20 11:50:39;;;;;;;6.67;3.70;;;25.30;92.40;;;;;;5031909;28;20976;-63
2023/05/20 11:53:07;;;;;;;6.50;3.80;;;25.40;93.00;;;;;;5032076;28;20459;-64
2023/05/20 11:55:44;;;;;;;13.93;4.10;;;25.40;90.80;;;;;;5031935;28;20533;-64
2023/05/20 11:58:19;;;;;;;8.07;3.60;;;25.40;90.30;;;;;;5032259;28;20462;-64
2023/05/20 12:00:46;;;;;;;5.60;3.90;;;25.70;91.10;;;;;;5031988;28;20492;-65
2023/05/20 12:03:13;;;;;;;6.87;3.87;;;25.80;90.70;;;;;;5031873;28;20466;-64
2023/05/20 12:05:42;;;;;;;6.10;3.70;;;25.50;90.90;;;;;;5031862;28;20483;-65
2023/05/20 12:08:10;;;;;;;6.83;4.20;;;25.30;92.00;;;;;;5031873;28;20459;-65
2023/05/20 12:10:37;;;;;;;7.13;4.00;;;25.10;91.50;;;;;;5031844;28;20878;-64
2023/05/20 12:13:07;;;;;;;6.30;3.67;;;24.90;92.20;;;;;;5032046;28;21058;-64
2023/05/20 12:15:35;;;;;;;6.20;3.90;;;24.90;92.10;;;;;;5031942;28;20458;-64
2023/05/20 12:18:03;;;;;;;5.53;3.83;;;24.80;92.10;;;;;;5031727;28;20848;-63
2023/05/20 12:20:33;;;;;;;5.70;3.90;;;24.60;93.10;;;;;;5031726;28;20516;-64
2023/05/20 12:23:02;;;;;;;5.60;3.37;;;24.60;92.70;;;;;;5031563;28;20455;-65
2023/05/20 12:25:29;;;;;;;12.50;4.67;;;24.40;93.10;;;;;;5031419;28;20486;-63
2023/05/20 12:27:56;;;;;;;4.70;3.30;;;24.40;93.00;;;;;;5031358;28;20459;-63
2023/05/20 12:30:24;;;;;;;7.00;3.93;;;24.40;92.70;;;;;;5030982;28;20956;-63
2023/05/20 12:32:52;;;;;;;5.60;3.57;;;24.20;92.10;;;;;;5031352;28;20455;-63
2023/05/20 12:35:25;;;;;;;4.83;3.40;;;24.20;91.80;;;;;;5031194;28;20949;-64
2023/05/20 12:37:54;;;;;;;6.43;3.73;;;24.20;91.80;;;;;;5031306;28;20521;-64
2023/05/20 12:40:23;;;;;;;7.67;3.57;;;24.20;93.50;;;;;;5031339;28;20485;-65
2023/05/20 12:42:50;;;;;;;6.77;3.70;;;24.20;93.90;;;;;;5031261;28;20458;-64
2023/05/20 12:45:17;;;;;;;5.93;3.33;;;24.30;93.90;;;;;;5031316;28;20470;-64
2023/05/20 12:47:45;;;;;;;8.97;4.87;;;24.40;92.10;;;;;;5030064;28;20466;-64
2023/05/20 12:50:12;;;;;;;6.50;3.80;;;24.40;93.30;;;;;;5029931;28;20470;-64
2023/05/20 12:52:39;;;;;;;7.07;3.83;;;25.00;93.00;;;;;;5030665;28;20474;-64
2023/05/20 12:55:12;;;;;;;6.47;3.83;;;25.50;89.60;;;;;;5031196;28;20459;-64